Time;durP1;ratioP1;P1;durP2;ratioP2;P2;SDS_P1;SDS_P2;PMS_P1;PMS_P2;Temp;Humidity;BMP_temperature;BMP_pressure;BME280_temperature;BME280_humidity;BME280_pressure;Samples;Min_cycle;Max_cycle;Signal;HPM_P1;HPM_P2
2022/06/09 00:01:03;;;;;;;16.27;12.98;;;;;;;15.43;71.15;99465.09;2195789;81;33618;-67
2022/06/09 00:04:15;;;;;;;15.08;13.40;;;;;;;15.43;71.15;99465.09;2194727;81;30576;-69
2022/06/09 00:07:21;;;;;;;14.60;13.10;;;;;;;15.41;71.60;99461.66;2130526;82;27755;-69
2022/06/09 00:10:31;;;;;;;15.98;12.80;;;;;;;15.40;71.80;99461.28;2156084;82;28511;-69
2022/06/09 00:13:34;;;;;;;15.13;13.53;;;;;;;15.37;71.70;99452.13;2146803;82;31097;-67
2022/06/09 00:16:36;;;;;;;19.20;14.23;;;;;;;15.32;71.65;99450.66;2121610;82;34261;-68
2022/06/09 00:19:38;;;;;;;16.23;14.53;;;;;;;15.30;72.22;99448.58;2146574;82;30502;-70
2022/06/09 00:22:40;;;;;;;16.23;14.47;;;;;;;15.30;72.22;99448.58;2195454;81;27659;-69
2022/06/09 00:25:43;;;;;;;16.80;13.85;;;;;;;15.31;72.45;99441.32;2157228;82;29673;-67
2022/06/09 00:28:45;;;;;;;16.25;14.55;;;;;;;15.24;72.69;99434.23;2155242;82;31433;-68
2022/06/09 00:31:47;;;;;;;17.05;15.30;;;;;;;15.30;72.82;99445.03;2146938;82;34108;-66
2022/06/09 00:34:49;;;;;;;15.48;13.88;;;;;;;15.29;72.91;99451.42;2195385;81;30535;-68
2022/06/09 00:37:50;;;;;;;20.15;13.13;;;;;;;15.28;73.13;99441.61;2157280;82;27565;-67
2022/06/09 00:40:59;;;;;;;16.87;14.25;;;;;;;15.28;73.52;99441.61;2156907;81;29937;-67
2022/06/09 00:44:22;;;;;;;17.70;14.70;;;;;;;15.26;73.53;99438.17;2157550;82;31221;-66
2022/06/09 00:47:29;;;;;;;18.50;15.13;;;;;;;15.24;73.45;99441.48;2155315;82;34158;-67
2022/06/09 00:50:33;;;;;;;16.67;14.87;;;;;;;15.23;73.69;99430.33;2146788;82;29345;-67
2022/06/09 00:53:37;;;;;;;17.07;15.28;;;;;;;15.22;73.95;99423.22;2169740;81;27630;-66
2022/06/09 00:56:44;;;;;;;16.27;14.57;;;;;;;15.21;73.91;99418.80;2195734;81;29162;-66
2022/06/09 00:59:50;;;;;;;17.82;14.70;;;;;;;15.19;73.80;99417.59;2195552;81;31184;-66
2022/06/09 01:02:53;;;;;;;18.32;15.15;;;;;;;15.17;73.63;99410.12;2195311;81;34115;-66
2022/06/09 01:06:00;;;;;;;17.95;15.60;;;;;;;15.16;73.56;99411.09;2157190;82;29387;-68
2022/06/09 01:09:16;;;;;;;16.15;14.47;;;;;;;15.14;73.81;99410.37;2157479;82;27735;-69
2022/06/09 01:12:26;;;;;;;16.70;14.90;;;;;;;15.12;73.88;99410.98;2157143;82;30055;-70
2022/06/09 01:15:38;;;;;;;19.00;15.20;;;;;;;15.13;74.09;99407.30;2157803;82;30638;-67
2022/06/09 01:19:15;;;;;;;19.05;16.40;;;;;;;15.12;74.00;99408.28;2195678;80;33472;-67
2022/06/09 01:22:58;;;;;;;18.85;15.70;;;;;;;15.10;74.03;99412.95;2069796;85;30003;-67
2022/06/09 01:26:14;;;;;;;18.32;15.80;;;;;;;15.10;74.12;99408.42;2046563;87;27824;-69
2022/06/09 01:29:56;;;;;;;19.85;16.73;;;;;;;15.10;74.20;99408.42;2046523;87;30092;-67
2022/06/09 01:33:04;;;;;;;18.25;16.12;;;;;;;15.12;74.28;99401.06;2046384;87;32283;-66
2022/06/09 01:36:38;;;;;;;18.30;16.35;;;;;;;15.12;74.27;99402.41;2046615;87;32982;-67
2022/06/09 01:39:59;;;;;;;19.62;16.52;;;;;;;15.14;74.25;99403.62;2042934;87;29205;-67
2022/06/09 01:43:02;;;;;;;19.55;17.45;;;;;;;15.16;74.36;99399.80;2028147;87;27774;-68
2022/06/09 01:46:15;;;;;;;19.67;17.57;;;;;;;15.16;74.53;99390.36;2028512;87;29090;-68
2022/06/09 01:49:21;;;;;;;20.92;16.32;;;;;;;15.17;74.56;99389.88;2029744;86;31958;-68
2022/06/09 01:52:24;;;;;;;20.02;15.28;;;;;;;15.17;74.50;99388.02;2028300;87;32973;-66
2022/06/09 01:55:27;;;;;;;18.40;15.85;;;;;;;15.17;74.43;99381.28;2028133;87;30272;-66
2022/06/09 01:58:34;;;;;;;18.15;16.02;;;;;;;15.17;74.43;99381.28;2084601;83;27806;-65
2022/06/09 02:01:41;;;;;;;23.87;19.27;;;;;;;15.15;74.30;99383.25;2137508;83;28806;-68
2022/06/09 02:04:54;;;;;;;19.85;17.10;;;;;;;15.14;74.28;99381.53;2137406;83;31538;-68
2022/06/09 02:07:59;;;;;;;22.10;17.00;;;;;;;15.13;74.53;99373.58;2137049;83;33193;-66
2022/06/09 02:11:08;;;;;;;23.83;16.87;;;;;;;15.11;74.44;99379.11;2137332;83;30113;-67
2022/06/09 02:14:10;;;;;;;19.70;17.40;;;;;;;15.10;74.55;99374.70;2137223;83;27626;-70
2022/06/09 02:17:13;;;;;;;19.98;16.73;;;;;;;14.98;74.79;99357.70;2145622;81;29892;-68
2022/06/09 02:20:17;;;;;;;23.55;19.37;;;;;;;14.98;74.79;99357.70;2174221;81;32065;-68
2022/06/09 02:23:19;;;;;;;25.32;20.55;;;;;;;15.12;74.98;99379.95;2174430;81;33182;-66
2022/06/09 02:26:23;;;;;;;30.70;24.15;;;;;;;15.12;75.13;99379.95;2171899;81;30119;-65
2022/06/09 02:29:24;;;;;;;27.07;22.55;;;;;;;15.15;75.76;99383.75;2118909;84;27689;-69
2022/06/09 02:32:26;;;;;;;33.30;24.35;;;;;;;15.19;75.81;99378.47;2118982;84;29286;-68
2022/06/09 02:35:29;;;;;;;29.67;24.92;;;;;;;15.21;75.80;99380.55;2118442;84;33140;-69
2022/06/09 02:38:31;;;;;;;29.70;25.30;;;;;;;15.25;76.03;99387.38;2118590;84;34304;-69
2022/06/09 02:41:34;;;;;;;31.68;27.00;;;;;;;15.30;76.55;99398.66;2145497;81;30189;-67
2022/06/09 02:44:36;;;;;;;34.70;28.38;;;;;;;15.35;76.77;99396.91;2157416;82;27623;-67
2022/06/09 02:47:38;;;;;;;34.95;29.00;;;;;;;15.42;77.17;99404.86;2162525;82;29553;-67
2022/06/09 02:50:41;;;;;;;32.25;26.93;;;;;;;15.49;77.71;99410.09;2215002;80;31880;-66
2022/06/09 02:53:43;;;;;;;36.30;28.45;;;;;;;15.56;77.63;99410.93;2215344;80;32957;-66
2022/06/09 02:56:45;;;;;;;35.63;28.07;;;;;;;15.62;77.58;99418.52;2215039;80;30625;-68
2022/06/09 02:59:47;;;;;;;37.67;28.70;;;;;;;15.69;78.03;99424.25;2215042;80;27584;-67
2022/06/09 03:02:59;;;;;;;35.30;28.60;;;;;;;15.74;78.18;99430.09;2214905;80;29887;-66
2022/06/09 03:06:01;;;;;;;33.88;28.30;;;;;;;15.80;78.20;99432.28;2215086;80;31840;-68
2022/06/09 03:09:04;;;;;;;30.80;25.80;;;;;;;15.85;78.34;99436.84;2214947;80;34150;-66
2022/06/09 03:12:09;;;;;;;33.50;28.05;;;;;;;15.97;78.42;99438.11;2215000;80;29356;-66
2022/06/09 03:15:13;;;;;;;34.40;27.67;;;;;;;15.97;78.42;99438.11;2215803;80;27869;-67
2022/06/09 03:18:15;;;;;;;39.83;26.97;;;;;;;16.02;78.21;99434.02;2215083;80;28202;-65
2022/06/09 03:21:17;;;;;;;33.13;25.82;;;;;;;16.12;79.04;99435.42;2215317;80;31031;-67
2022/06/09 03:24:19;;;;;;;31.77;27.10;;;;;;;16.12;79.04;99435.42;2215078;80;33394;-68
2022/06/09 03:27:21;;;;;;;30.02;26.07;;;;;;;16.16;78.59;99437.36;2215001;80;30519;-69
2022/06/09 03:30:24;;;;;;;30.27;26.57;;;;;;;16.19;78.38;99442.02;2215183;80;28197;-67
2022/06/09 03:33:26;;;;;;;32.83;26.60;;;;;;;16.24;78.38;99442.45;2214977;80;29862;-67
2022/06/09 03:36:31;;;;;;;32.30;26.30;;;;;;;16.32;78.49;99443.13;2214973;80;32337;-67
2022/06/09 03:39:33;;;;;;;34.23;27.65;;;;;;;16.37;78.49;99442.75;2215280;79;33018;-67
2022/06/09 03:42:35;;;;;;;30.60;24.95;;;;;;;16.42;78.70;99445.89;2210911;80;29914;-67
2022/06/09 03:45:37;;;;;;;33.58;25.68;;;;;;;16.46;78.54;99439.73;2211070;80;27664;-68
2022/06/09 03:48:40;;;;;;;34.73;25.72;;;;;;;16.51;78.40;99443.74;2182627;80;29111;-66
2022/06/09 03:51:42;;;;;;;28.90;25.70;;;;;;;16.56;78.33;99440.11;2210807;80;31851;-66
2022/06/09 03:54:44;;;;;;;30.72;25.17;;;;;;;16.61;78.36;99432.97;2210668;80;34171;-66
2022/06/09 03:57:46;;;;;;;31.65;25.75;;;;;;;16.67;78.36;99439.16;2211184;80;30507;-68
2022/06/09 04:00:48;;;;;;;32.90;26.55;;;;;;;16.60;78.28;99424.49;2210905;80;27523;-67
2022/06/09 04:03:50;;;;;;;30.68;25.30;;;;;;;16.79;78.20;99445.84;2211044;80;28542;-68
2022/06/09 04:06:52;;;;;;;28.87;24.87;;;;;;;16.88;78.17;99442.80;2210690;80;32236;-66
2022/06/09 04:09:54;;;;;;;28.23;25.17;;;;;;;16.88;78.17;99442.80;2210781;80;34170;-66
2022/06/09 04:12:56;;;;;;;29.72;24.37;;;;;;;16.94;78.08;99449.87;2210934;80;29810;-66
2022/06/09 04:15:59;;;;;;;29.65;24.05;;;;;;;17.00;78.15;99445.78;2211330;80;27639;-66
2022/06/09 04:19:05;;;;;;;29.95;24.25;;;;;;;17.04;78.17;99449.05;2210528;80;29900;-66
2022/06/09 04:22:08;;;;;;;27.75;23.57;;;;;;;17.09;78.05;99448.15;2211022;80;31831;-66
2022/06/09 04:25:11;;;;;;;28.40;24.98;;;;;;;17.14;77.94;99448.08;2210998;80;33361;-67
2022/06/09 04:28:12;;;;;;;26.45;23.57;;;;;;;17.22;77.93;99450.57;2211022;80;30141;-65
2022/06/09 04:31:15;;;;;;;28.30;23.90;;;;;;;17.28;77.88;99454.95;2210989;80;27582;-65
2022/06/09 04:34:17;;;;;;;25.97;23.18;;;;;;;17.35;77.79;99448.95;2210790;80;29275;-66
2022/06/09 04:37:19;;;;;;;28.12;24.72;;;;;;;17.41;77.71;99443.83;2210788;80;32230;-64
2022/06/09 04:40:22;;;;;;;28.52;23.85;;;;;;;17.51;77.64;99447.05;2211931;80;32964;-68
2022/06/09 04:43:23;;;;;;;28.07;23.98;;;;;;;17.55;77.53;99449.33;2222386;80;30584;-65
2022/06/09 04:46:26;;;;;;;26.55;22.17;;;;;;;17.63;77.48;99449.97;2222969;80;28009;-65
2022/06/09 04:49:28;;;;;;;26.97;24.07;;;;;;;17.69;77.42;99448.05;2222572;80;29875;-66
2022/06/09 04:52:31;;;;;;;25.10;22.15;;;;;;;17.74;77.32;99448.45;2222491;80;32347;-66
2022/06/09 04:55:36;;;;;;;27.27;24.30;;;;;;;17.78;77.23;99450.41;2222334;80;33515;-65
2022/06/09 04:58:38;;;;;;;25.57;22.98;;;;;;;17.80;77.15;99452.95;2222104;80;29340;-66
2022/06/09 05:01:40;;;;;;;27.17;23.18;;;;;;;17.81;77.18;99452.80;2222573;80;27613;-68
2022/06/09 05:04:42;;;;;;;26.52;23.70;;;;;;;17.82;77.12;99455.86;2222477;80;28692;-66
2022/06/09 05:07:45;;;;;;;37.38;25.55;;;;;;;17.83;77.13;99463.51;2222364;79;32215;-66
2022/06/09 05:10:47;;;;;;;31.52;26.33;;;;;;;17.84;77.30;99462.52;2222410;80;33942;-66
2022/06/09 05:13:50;;;;;;;36.25;28.50;;;;;;;17.86;77.92;99465.42;2222378;79;30562;-65
2022/06/09 05:16:52;;;;;;;36.30;29.00;;;;;;;17.89;78.04;99465.14;2222915;79;28203;-65
2022/06/09 05:19:54;;;;;;;31.68;28.27;;;;;;;17.90;77.91;99462.78;2222418;80;29951;-65
2022/06/09 05:22:56;;;;;;;34.58;29.00;;;;;;;17.95;78.20;99470.98;2222311;80;33132;-64
2022/06/09 05:26:01;;;;;;;36.98;28.80;;;;;;;18.00;78.22;99466.00;2222308;79;34062;-68
2022/06/09 05:29:04;;;;;;;32.38;27.27;;;;;;;18.04;78.30;99464.72;2222681;80;30254;-63
2022/06/09 05:32:08;;;;;;;31.60;27.30;;;;;;;18.05;78.13;99468.63;2222403;80;27656;-65
2022/06/09 05:35:10;;;;;;;32.20;27.58;;;;;;;18.07;78.14;99464.44;2222683;80;28706;-68
2022/06/09 05:44:56;;;;;;;34.40;28.05;;;;;;;18.17;78.47;99480.17;2210726;80;30550;-68
2022/06/09 05:47:58;;;;;;;33.30;28.62;;;;;;;18.25;78.53;99482.66;2211049;80;27609;-68
2022/06/09 05:51:01;;;;;;;30.95;27.60;;;;;;;18.36;78.54;99481.13;2210873;80;30085;-65
2022/06/09 05:54:04;;;;;;;30.72;27.35;;;;;;;18.49;78.71;99485.72;2210455;80;31447;-64
2022/06/09 05:57:06;;;;;;;34.10;28.07;;;;;;;18.62;78.59;99483.17;2210566;80;34165;-69
2022/06/09 06:00:11;;;;;;;30.23;26.73;;;;;;;18.72;78.46;99485.85;2210683;80;30645;-67
2022/06/09 06:03:14;;;;;;;;;;;;;;;18.78;78.06;99482.03;2213847;80;27690;-69
2022/06/09 06:06:34;;;;;;;32.75;25.82;;;;;;;18.83;77.95;99488.39;2210612;80;28689;-65
2022/06/09 06:09:36;;;;;;;35.63;29.52;;;;;;;18.88;77.95;99487.94;2210739;80;32297;-64
2022/06/09 06:12:39;;;;;;;37.73;29.82;;;;;;;18.91;77.94;99487.64;2210704;80;34090;-69
2022/06/09 06:15:41;;;;;;;34.73;28.02;;;;;;;18.96;77.75;99494.36;2210561;80;29386;-64
2022/06/09 06:18:43;;;;;;;31.55;28.15;;;;;;;19.05;77.87;99501.23;2210883;80;27622;-64
2022/06/09 06:21:47;;;;;;;30.85;26.93;;;;;;;19.13;77.76;99504.89;2211099;80;29229;-64
2022/06/09 06:24:49;;;;;;;29.93;26.80;;;;;;;19.25;77.78;99509.62;2211139;80;31817;-64
2022/06/09 06:27:52;;;;;;;24.98;22.45;;;;;;;19.37;77.58;99506.69;2211001;80;33020;-66
2022/06/09 06:30:54;;;;;;;23.55;21.20;;;;;;;19.55;76.99;99495.86;2210581;80;30201;-65
2022/06/09 06:33:56;;;;;;;22.85;19.98;;;;;;;19.96;77.57;99493.53;2210619;80;27635;-65
2022/06/09 06:36:58;;;;;;;20.82;18.40;;;;;;;20.73;77.52;99492.86;2210686;80;29073;-68
2022/06/09 06:40:00;;;;;;;20.55;17.40;;;;;;;21.48;76.81;99487.73;2210636;80;32231;-68
2022/06/09 06:43:03;;;;;;;21.42;18.60;;;;;;;22.15;76.65;99490.34;2185963;80;33105;-67
2022/06/09 06:46:05;;;;;;;17.87;15.98;;;;;;;23.20;76.46;99491.79;2140858;82;28810;-67
2022/06/09 06:49:08;;;;;;;16.70;14.90;;;;;;;24.20;74.66;99495.59;2141017;83;27689;-66
2022/06/09 06:52:10;;;;;;;21.07;15.75;;;;;;;24.93;73.06;99487.30;2139085;83;29441;-68
2022/06/09 06:55:16;;;;;;;16.82;14.45;;;;;;;25.32;71.15;99486.95;2178818;81;31208;-71
2022/06/09 06:58:18;;;;;;;16.40;14.75;;;;;;;25.61;70.52;99487.09;2178879;81;33758;-69
2022/06/09 07:01:20;;;;;;;19.70;16.05;;;;;;;25.86;69.24;99489.47;2140684;82;30498;-70
2022/06/09 07:04:22;;;;;;;18.40;16.02;;;;;;;26.01;68.15;99490.75;2138985;83;27585;-69
2022/06/09 07:07:25;;;;;;;18.25;16.10;;;;;;;26.07;67.89;99492.18;2124105;83;29919;-69
2022/06/09 07:10:27;;;;;;;17.62;15.60;;;;;;;26.12;66.67;99490.78;2140752;83;31454;-69
2022/06/09 07:13:29;;;;;;;15.53;14.03;;;;;;;26.37;65.88;99492.05;2138753;83;34202;-68
2022/06/09 07:16:32;;;;;;;15.30;13.80;;;;;;;26.80;65.63;99498.48;2124146;83;30168;-67
2022/06/09 07:19:34;;;;;;;14.85;12.88;;;;;;;27.20;64.94;99497.83;2179033;81;27621;-68
2022/06/09 07:22:36;;;;;;;13.55;12.25;;;;;;;27.33;63.09;99502.00;2141067;82;28960;-68
2022/06/09 07:25:38;;;;;;;13.68;12.28;;;;;;;27.68;62.46;99496.97;2140673;83;31893;-68
2022/06/09 07:28:40;;;;;;;14.53;12.30;;;;;;;28.04;62.12;99503.47;2140715;83;34266;-68
2022/06/09 07:31:43;;;;;;;14.58;13.18;;;;;;;28.18;61.17;99515.38;2138779;83;30082;-69
2022/06/09 07:34:46;;;;;;;13.95;12.45;;;;;;;28.15;60.76;99510.29;2178695;81;28159;-68
2022/06/09 07:37:48;;;;;;;14.63;13.22;;;;;;;28.14;60.29;99514.10;2140720;83;29901;-69
2022/06/09 07:40:50;;;;;;;15.13;13.45;;;;;;;28.02;59.25;99512.47;2138779;83;31691;-68
2022/06/09 07:43:52;;;;;;;14.73;13.13;;;;;;;27.87;58.84;99516.81;2180061;80;32962;-67
2022/06/09 07:46:54;;;;;;;14.23;12.80;;;;;;;27.82;58.41;99519.84;2210971;80;30491;-69
2022/06/09 07:49:57;;;;;;;13.28;12.00;;;;;;;27.81;58.02;99512.64;2211281;80;27893;-69
2022/06/09 07:52:59;;;;;;;14.80;13.32;;;;;;;27.88;57.78;99515.72;2211103;80;29433;-69
2022/06/09 07:56:02;;;;;;;14.90;13.55;;;;;;;28.07;57.63;99512.38;2211112;80;31807;-69
2022/06/09 07:59:08;;;;;;;14.43;12.98;;;;;;;28.13;56.34;99517.91;2211020;80;32987;-69
2022/06/09 08:02:12;;;;;;;13.53;12.13;;;;;;;28.10;57.00;99514.74;2210693;80;30615;-69
2022/06/09 08:05:16;;;;;;;12.82;11.57;;;;;;;28.40;56.77;99515.69;2211281;80;27707;-68
2022/06/09 08:08:19;;;;;;;14.05;12.23;;;;;;;28.72;56.19;99515.86;2210960;80;28723;-70
2022/06/09 08:11:23;;;;;;;12.00;10.80;;;;;;;29.03;56.05;99492.27;2210634;80;31027;-69
2022/06/09 08:14:25;;;;;;;11.83;10.72;;;;;;;29.58;54.88;99505.63;2210326;80;34755;-67
2022/06/09 08:17:30;;;;;;;11.57;10.50;;;;;;;29.89;54.25;99511.39;2210612;80;30518;-67
2022/06/09 08:20:35;;;;;;;12.73;11.53;;;;;;;30.08;53.76;99505.43;2211279;80;27678;-69
2022/06/09 08:23:37;;;;;;;12.90;11.08;;;;;;;30.14;52.75;99516.42;2210965;80;28809;-68
2022/06/09 08:26:39;;;;;;;15.20;12.13;;;;;;;30.51;52.67;99514.84;2211405;80;31420;-69
2022/06/09 08:29:41;;;;;;;11.53;10.40;;;;;;;30.76;51.54;99518.47;2210923;80;33750;-68
2022/06/09 08:32:43;;;;;;;10.98;10.03;;;;;;;30.92;51.01;99518.94;2210668;80;30665;-67
2022/06/09 08:35:45;;;;;;;11.18;10.15;;;;;;;31.00;50.97;99513.64;2210794;80;27591;-66
2022/06/09 08:38:48;;;;;;;12.65;10.45;;;;;;;31.11;50.09;99521.16;2210675;80;29538;-67
2022/06/09 08:42:29;;;;;;;9.83;8.68;;;;;;;31.15;49.48;99520.19;2210833;80;31087;-67
2022/06/09 08:45:39;;;;;;;9.55;8.73;;;;;;;31.24;49.03;99518.81;2210662;80;33408;-69
2022/06/09 08:48:43;;;;;;;9.93;9.03;;;;;;;31.27;48.14;99516.97;2182931;80;29336;-67
2022/06/09 08:51:48;;;;;;;11.10;9.95;;;;;;;31.28;48.24;99520.56;2210858;80;27689;-65
2022/06/09 08:54:51;;;;;;;10.15;9.25;;;;;;;31.22;47.96;99520.41;2210743;80;29528;-68
2022/06/09 08:58:01;;;;;;;9.90;8.93;;;;;;;31.08;47.82;99527.15;2210667;80;32175;-68
2022/06/09 09:01:12;;;;;;;9.58;8.60;;;;;;;30.85;47.21;99531.98;2210599;80;34312;-68
2022/06/09 09:04:22;;;;;;;9.93;9.03;;;;;;;30.54;47.69;99533.75;2206007;80;30479;-68
2022/06/09 09:07:30;;;;;;;10.65;9.73;;;;;;;30.42;47.74;99541.92;2211189;80;27699;-69
2022/06/09 09:10:47;;;;;;;10.45;9.20;;;;;;;30.23;47.19;99540.48;2211045;80;28697;-67
2022/06/09 09:14:07;;;;;;;12.55;9.60;;;;;;;29.99;47.34;99544.39;2210991;80;32273;-69
2022/06/09 09:17:40;;;;;;;11.00;8.90;;;;;;;29.72;46.95;99543.67;2211021;80;32962;-69
2022/06/09 09:20:53;;;;;;;10.68;9.58;;;;;;;29.59;47.12;99541.82;2210650;80;30342;-69
2022/06/09 09:24:10;;;;;;;12.05;9.80;;;;;;;29.34;47.31;99545.83;2210877;80;27697;-69
2022/06/09 09:27:26;;;;;;;12.35;11.20;;;;;;;29.12;47.74;99548.89;2206693;80;29584;-70
2022/06/09 09:30:40;;;;;;;11.97;10.78;;;;;;;28.86;47.50;99542.37;2210200;80;31875;-69
2022/06/09 09:33:42;;;;;;;14.53;11.28;;;;;;;28.56;47.54;99550.22;2211046;80;35279;-69
2022/06/09 09:36:49;;;;;;;12.60;10.35;;;;;;;28.26;47.92;99549.27;2211056;80;29960;-70
2022/06/09 09:39:58;;;;;;;10.40;9.40;;;;;;;28.07;48.14;99547.62;2211004;80;27709;-69
2022/06/09 09:43:11;;;;;;;16.25;10.70;;;;;;;27.84;48.50;99553.00;2210757;80;29126;-69
2022/06/09 09:46:27;;;;;;;11.90;10.70;;;;;;;27.65;48.48;99550.50;2210708;80;31060;-69
2022/06/09 09:49:38;;;;;;;10.82;9.73;;;;;;;27.53;48.67;99550.78;2210635;80;34154;-69
2022/06/09 09:52:46;;;;;;;12.20;9.78;;;;;;;27.42;48.80;99554.42;2210631;80;30492;-70
2022/06/09 09:56:18;;;;;;;11.00;9.95;;;;;;;27.43;49.64;99552.00;2211157;80;27687;-69
2022/06/09 09:59:26;;;;;;;12.70;10.28;;;;;;;27.42;48.33;99555.80;2207581;80;29479;-70
2022/06/09 10:09:26;;;;;;;11.57;10.55;;;;;;;27.34;48.57;99556.50;2210841;80;30146;-68
2022/06/09 10:12:33;;;;;;;12.68;9.88;;;;;;;27.50;48.94;99556.17;2210775;80;33659;-72
2022/06/09 10:15:39;;;;;;;10.38;9.43;;;;;;;27.64;48.52;99555.67;2211014;80;28806;-69
2022/06/09 10:18:44;;;;;;;11.75;10.72;;;;;;;27.71;48.59;99560.69;2211076;80;30999;-70
2022/06/09 10:21:59;;;;;;;10.98;10.08;;;;;;;27.73;48.32;99568.72;2210986;80;32970;-69
2022/06/09 10:25:15;;;;;;;11.08;9.58;;;;;;;27.81;48.87;99566.31;2210698;80;30127;-69
2022/06/09 10:28:49;;;;;;;12.60;11.35;;;;;;;27.93;48.98;99572.06;2210848;80;28076;-70
2022/06/09 10:32:15;;;;;;;11.22;10.13;;;;;;;28.01;48.62;99575.47;2210855;80;29236;-70
2022/06/09 10:35:22;;;;;;;12.70;9.23;;;;;;;28.08;48.63;99569.98;2210715;80;31805;-70
2022/06/09 10:38:41;;;;;;;10.93;9.80;;;;;;;28.19;48.57;99572.67;2210246;80;33667;-70
2022/06/09 10:41:51;;;;;;;10.90;9.80;;;;;;;28.32;48.70;99577.36;2209690;80;30410;-70
2022/06/09 10:45:25;;;;;;;10.40;9.40;;;;;;;28.47;48.66;99582.13;2210473;80;27773;-72
2022/06/09 10:56:27;;;;;;;;;;;;;;;28.48;47.93;99575.56;2213620;80;34092;-70
2022/06/09 10:59:37;;;;;;;10.43;8.95;;;;;;;28.39;48.08;99575.98;2118937;83;29358;-71
2022/06/09 11:02:47;;;;;;;11.50;10.13;;;;;;;28.40;48.59;99567.49;2118412;84;27725;-71
2022/06/09 11:06:26;;;;;;;11.63;10.53;;;;;;;28.54;48.50;99566.97;2118403;84;29895;-71
2022/06/09 11:09:49;;;;;;;11.90;10.80;;;;;;;28.74;48.17;99573.87;2118687;84;32374;-70
2022/06/09 11:13:24;;;;;;;12.20;11.00;;;;;;;28.91;47.77;99567.91;2118868;84;33077;-71
2022/06/09 11:16:47;;;;;;;12.33;11.22;;;;;;;29.03;47.79;99560.70;2118224;84;30654;-69
2022/06/09 11:20:21;;;;;;;12.40;11.30;;;;;;;29.08;47.48;99565.02;2118455;84;27650;-69
2022/06/09 11:23:52;;;;;;;12.75;11.55;;;;;;;29.20;46.94;99558.84;2118739;84;30109;-71
2022/06/09 11:27:07;;;;;;;11.22;10.08;;;;;;;29.21;46.68;99557.23;2118621;84;32246;-71
2022/06/09 11:30:49;;;;;;;12.68;11.38;;;;;;;29.21;46.80;99558.62;2119119;84;32775;-71
2022/06/09 11:34:38;;;;;;;11.70;10.63;;;;;;;29.11;46.80;99553.55;2118756;84;30531;-71
2022/06/09 11:38:00;;;;;;;11.25;10.25;;;;;;;28.85;46.39;99550.33;2197895;80;27633;-70
2022/06/09 11:41:29;;;;;;;14.98;10.35;;;;;;;28.63;46.66;99553.28;2211000;80;29095;-70
2022/06/09 11:44:39;;;;;;;13.10;10.78;;;;;;;28.55;46.76;99551.27;2218998;80;31718;-71
2022/06/09 11:47:42;;;;;;;13.93;10.98;;;;;;;28.48;46.97;99556.27;2222733;79;32989;-71
2022/06/09 11:50:45;;;;;;;12.00;10.77;;;;;;;28.46;47.39;99559.77;2222689;80;29393;-71
2022/06/09 11:53:52;;;;;;;9.98;9.08;;;;;;;28.42;47.19;99564.00;2222523;80;27660;-69
2022/06/09 11:57:19;;;;;;;12.05;10.80;;;;;;;28.34;47.24;99560.92;2222773;80;28690;-70
2022/06/09 12:00:34;;;;;;;12.47;11.28;;;;;;;28.28;47.18;99560.41;2222302;80;32236;-72
2022/06/09 12:03:44;;;;;;;12.75;11.60;;;;;;;28.16;47.13;99558.80;2222228;79;34176;-69
2022/06/09 12:06:57;;;;;;;15.43;11.55;;;;;;;28.12;47.40;99564.95;2222475;79;31439;-71
2022/06/09 12:10:13;;;;;;;11.53;10.48;;;;;;;28.03;47.33;99562.34;2222562;80;27731;-72
2022/06/09 12:13:22;;;;;;;11.48;10.25;;;;;;;27.99;47.65;99566.57;2221780;80;29561;-70
2022/06/09 12:16:31;;;;;;;13.03;11.70;;;;;;;28.00;47.51;99566.89;2222833;79;31128;-72
2022/06/09 12:20:04;;;;;;;17.15;14.47;;;;;;;28.03;47.73;99567.02;2222753;79;33041;-72
2022/06/09 12:23:33;;;;;;;16.87;15.23;;;;;;;28.00;48.28;99572.40;2223035;79;29398;-72
2022/06/09 12:26:48;;;;;;;18.52;16.80;;;;;;;27.87;48.86;99565.49;2222958;79;27626;-69
2022/06/09 12:30:04;;;;;;;18.55;16.23;;;;;;;27.59;48.88;99575.56;2222819;79;28703;-68
2022/06/09 12:33:23;;;;;;;19.40;16.67;;;;;;;27.37;49.21;99574.81;2222844;79;31066;-68
2022/06/09 12:36:43;;;;;;;19.05;17.05;;;;;;;27.17;49.56;99580.22;2222283;79;34212;-69
2022/06/09 12:40:08;;;;;;;20.60;16.93;;;;;;;26.95;50.09;99580.83;2222416;79;30034;-71
2022/06/09 12:43:37;;;;;;;20.02;17.90;;;;;;;26.86;50.60;99580.64;2205093;80;27681;-69
2022/06/09 12:46:41;;;;;;;21.05;18.92;;;;;;;26.84;51.17;99578.94;2178470;81;28889;-69
2022/06/09 12:49:47;;;;;;;20.90;18.35;;;;;;;26.89;51.80;99578.34;2141027;82;31095;-71
2022/06/09 12:52:54;;;;;;;19.20;17.37;;;;;;;26.94;51.83;99573.09;2139033;83;32986;-72
2022/06/09 12:55:59;;;;;;;18.80;17.02;;;;;;;27.01;52.04;99581.92;2179108;81;29354;-71
2022/06/09 12:59:18;;;;;;;18.57;16.75;;;;;;;27.11;52.15;99587.38;2141132;82;27597;-69
2022/06/09 13:02:26;;;;;;;16.17;14.58;;;;;;;27.11;51.81;99586.01;2141013;83;29526;-72
2022/06/09 13:05:36;;;;;;;11.85;10.72;;;;;;;27.11;51.46;99592.88;2153411;81;31031;-71
2022/06/09 13:08:48;;;;;;;12.80;11.55;;;;;;;27.02;50.83;99600.95;2141224;83;32981;-72
2022/06/09 13:15:37;;;;;;;10.68;9.58;;;;;;;26.81;50.31;99588.13;2139135;83;27594;-70
2022/06/09 13:18:43;;;;;;;11.20;10.20;;;;;;;26.71;50.20;99582.11;2124558;83;29627;-72
2022/06/09 13:21:47;;;;;;;10.45;9.15;;;;;;;26.61;50.09;99584.66;2140952;83;31848;-68
2022/06/09 13:24:50;;;;;;;11.78;10.58;;;;;;;26.54;50.26;99590.64;2138921;83;33060;-70
2022/06/09 13:27:53;;;;;;;11.55;10.55;;;;;;;26.54;50.55;99588.73;2178921;81;30111;-67
2022/06/09 13:30:56;;;;;;;11.80;10.70;;;;;;;26.48;50.38;99591.42;2141011;83;28230;-68
2022/06/09 13:34:06;;;;;;;10.38;9.33;;;;;;;26.38;50.46;99595.38;2140836;83;29896;-69
2022/06/09 13:37:22;;;;;;;10.40;9.40;;;;;;;26.30;50.39;99597.41;2137011;83;32299;-69
2022/06/09 13:40:24;;;;;;;10.78;9.78;;;;;;;26.26;50.51;99599.67;2124340;83;33893;-68
2022/06/09 13:43:33;;;;;;;11.50;10.38;;;;;;;26.26;50.60;99593.34;2142638;81;30555;-70
2022/06/09 13:46:40;;;;;;;11.18;10.08;;;;;;;26.19;50.38;99600.14;2155428;82;27686;-70
2022/06/09 13:49:50;;;;;;;10.68;9.23;;;;;;;26.19;50.55;99586.42;2144291;82;28671;-66
2022/06/09 13:53:14;;;;;;;10.93;9.83;;;;;;;26.21;50.60;99593.40;2146533;82;31992;-69
2022/06/09 13:56:18;;;;;;;11.05;10.05;;;;;;;26.23;50.58;99594.56;2195597;81;33463;-68
2022/06/09 13:59:21;;;;;;;10.48;9.43;;;;;;;26.30;50.18;99591.91;2157475;82;29334;-67
2022/06/09 14:02:28;;;;;;;11.28;10.18;;;;;;;26.32;50.21;99596.15;2155446;82;27731;-70
2022/06/09 14:05:34;;;;;;;10.28;9.45;;;;;;;26.38;50.17;99598.12;2193367;81;28844;-68
2022/06/09 14:08:40;;;;;;;10.00;9.10;;;;;;;26.56;50.45;99602.26;2195702;81;31166;-66
2022/06/09 14:11:43;;;;;;;10.93;9.88;;;;;;;26.73;50.01;99607.46;2195671;81;33638;-67
2022/06/09 14:14:45;;;;;;;11.18;10.08;;;;;;;26.87;50.08;99624.95;2195299;81;30188;-69
2022/06/09 14:17:53;;;;;;;13.00;10.20;;;;;;;26.82;49.69;99628.30;2195764;81;27670;-68
2022/06/09 14:21:01;;;;;;;11.28;10.28;;;;;;;26.75;49.81;99625.47;2196007;81;28645;-66
2022/06/09 14:24:05;;;;;;;12.00;10.70;;;;;;;26.65;49.87;99623.06;2156775;82;31049;-67
2022/06/09 14:27:07;;;;;;;11.85;10.80;;;;;;;26.49;49.84;99625.55;2158011;82;33734;-67
2022/06/09 14:30:15;;;;;;;11.50;10.10;;;;;;;26.37;50.17;99632.12;2157806;82;30133;-68
2022/06/09 14:33:17;;;;;;;12.50;11.30;;;;;;;26.20;50.16;99635.63;2157231;82;27608;-71
2022/06/09 14:36:22;;;;;;;11.75;10.65;;;;;;;25.96;50.05;99643.67;2158360;82;29072;-67
2022/06/09 14:39:24;;;;;;;11.68;10.50;;;;;;;25.65;50.32;99648.89;2157622;82;32062;-71
2022/06/09 14:42:26;;;;;;;11.35;10.25;;;;;;;25.36;50.46;99652.46;2195401;81;34194;-67
2022/06/09 14:45:29;;;;;;;11.55;10.20;;;;;;;25.13;50.96;99661.10;2205833;80;30559;-67
2022/06/09 14:48:33;;;;;;;11.10;10.03;;;;;;;24.92;50.94;99660.97;2211043;80;27619;-68
2022/06/09 14:51:36;;;;;;;10.65;9.75;;;;;;;24.74;51.20;99659.41;2211138;80;27803;-67